sensor_id;sensor_type;location;lat;lon;timestamp;temperature;humidity
67817;DHT22;54614;47.576;7.524;2023-08-20T02:00:16;28.00;73.80
67817;DHT22;54614;47.576;7.524;2023-08-20T02:02:42;28.00;76.00
67817;DHT22;54614;47.576;7.524;2023-08-20T02:05:08;28.00;79.30
67817;DHT22;54614;47.576;7.524;2023-08-20T02:07:36;27.90;79.20
67817;DHT22;54614;47.576;7.524;2023-08-20T02:10:02;27.90;79.50
67817;DHT22;54614;47.576;7.524;2023-08-20T02:12:28;27.90;82.30
67817;DHT22;54614;47.576;7.524;2023-08-20T02:14:54;27.90;78.90
67817;DHT22;54614;47.576;7.524;2023-08-20T02:17:20;27.80;81.50
67817;DHT22;54614;47.576;7.524;2023-08-20T02:19:45;27.80;78.00
67817;DHT22;54614;47.576;7.524;2023-08-20T02:22:11;27.80;78.80
67817;DHT22;54614;47.576;7.524;2023-08-20T02:24:37;27.80;80.00
67817;DHT22;54614;47.576;7.524;2023-08-20T02:29:29;27.70;82.20
67817;DHT22;54614;47.576;7.524;2023-08-20T02:34:22;27.70;83.70
67817;DHT22;54614;47.576;7.524;2023-08-20T02:39:15;27.70;84.70
67817;DHT22;54614;47.576;7.524;2023-08-20T02:53:53;27.60;85.40
67817;DHT22;54614;47.576;7.524;2023-08-20T03:08:44;27.60;86.40
67817;DHT22;54614;47.576;7.524;2023-08-20T03:11:10;27.70;86.90
67817;DHT22;54614;47.576;7.524;2023-08-20T03:13:36;27.70;84.70
67817;DHT22;54614;47.576;7.524;2023-08-20T03:16:02;27.60;80.50
67817;DHT22;54614;47.576;7.524;2023-08-20T03:18:29;27.70;87.80
67817;DHT22;54614;47.576;7.524;2023-08-20T03:20:55;27.60;79.40
67817;DHT22;54614;47.576;7.524;2023-08-20T03:23:22;27.50;81.00
67817;DHT22;54614;47.576;7.524;2023-08-20T03:25:48;27.60;86.70
67817;DHT22;54614;47.576;7.524;2023-08-20T03:28:15;27.50;80.90
67817;DHT22;54614;47.576;7.524;2023-08-20T03:30:43;27.50;81.90
67817;DHT22;54614;47.576;7.524;2023-08-20T03:33:08;27.60;87.90
67817;DHT22;54614;47.576;7.524;2023-08-20T03:35:34;27.50;84.30
67817;DHT22;54614;47.576;7.524;2023-08-20T03:38:00;27.50;87.40
67817;DHT22;54614;47.576;7.524;2023-08-20T03:40:27;27.60;90.10
67817;DHT22;54614;47.576;7.524;2023-08-20T03:42:53;27.50;88.20
67817;DHT22;54614;47.576;7.524;2023-08-20T03:45:19;27.60;89.60
67817;DHT22;54614;47.576;7.524;2023-08-20T03:47:45;27.50;88.10
67817;DHT22;54614;47.576;7.524;2023-08-20T03:50:12;27.40;85.00
67817;DHT22;54614;47.576;7.524;2023-08-20T03:52:38;27.50;83.20
67817;DHT22;54614;47.576;7.524;2023-08-20T03:55:06;27.40;82.80
67817;DHT22;54614;47.576;7.524;2023-08-20T03:57:32;27.40;83.00
67817;DHT22;54614;47.576;7.524;2023-08-20T04:02:24;27.40;86.60
67817;DHT22;54614;47.576;7.524;2023-08-20T04:04:49;27.60;87.10
67817;DHT22;54614;47.576;7.524;2023-08-20T04:07:15;27.40;88.80
67817;DHT22;54614;47.576;7.524;2023-08-20T04:09:41;27.40;88.60
67817;DHT22;54614;47.576;7.524;2023-08-20T04:12:08;27.40;88.60
67817;DHT22;54614;47.576;7.524;2023-08-20T04:14:34;27.40;90.00
67817;DHT22;54614;47.576;7.524;2023-08-20T04:16:59;27.40;91.50
67817;DHT22;54614;47.576;7.524;2023-08-20T04:19:25;27.40;90.80
67817;DHT22;54614;47.576;7.524;2023-08-20T04:21:51;27.40;91.10
67817;DHT22;54614;47.576;7.524;2023-08-20T04:24:17;27.40;91.00
67817;DHT22;54614;47.576;7.524;2023-08-20T04:26:43;27.40;91.20
67817;DHT22;54614;47.576;7.524;2023-08-20T04:29:09;27.30;91.60
67817;DHT22;54614;47.576;7.524;2023-08-20T04:34:01;27.30;91.20
67817;DHT22;54614;47.576;7.524;2023-08-20T04:36:27;27.40;90.60
67817;DHT22;54614;47.576;7.524;2023-08-20T04:38:52;27.40;90.50
67817;DHT22;54614;47.576;7.524;2023-08-20T04:41:18;27.40;90.50
67817;DHT22;54614;47.576;7.524;2023-08-20T04:43:44;27.40;90.30
67817;DHT22;54614;47.576;7.524;2023-08-20T04:46:09;27.30;90.10
67817;DHT22;54614;47.576;7.524;2023-08-20T04:48:35;27.30;89.90
67817;DHT22;54614;47.576;7.524;2023-08-20T04:51:01;27.30;90.80
67817;DHT22;54614;47.576;7.524;2023-08-20T05:12:56;27.20;92.60
67817;DHT22;54614;47.576;7.524;2023-08-20T05:15:21;27.30;92.20
67817;DHT22;54614;47.576;7.524;2023-08-20T05:17:47;27.30;91.60
67817;DHT22;54614;47.576;7.524;2023-08-20T05:20:13;27.30;91.60
67817;DHT22;54614;47.576;7.524;2023-08-20T05:30:00;27.20;91.10
67817;DHT22;54614;47.576;7.524;2023-08-20T05:32:26;27.30;90.60
67817;DHT22;54614;47.576;7.524;2023-08-20T05:34:52;27.40;90.80
67817;DHT22;54614;47.576;7.524;2023-08-20T05:37:17;27.30;91.40
67817;DHT22;54614;47.576;7.524;2023-08-20T05:42:10;27.20;91.30
67817;DHT22;54614;47.576;7.524;2023-08-20T05:44:36;27.30;91.40
67817;DHT22;54614;47.576;7.524;2023-08-20T05:47:02;27.30;91.60
67817;DHT22;54614;47.576;7.524;2023-08-20T05:49:28;27.20;91.60
67817;DHT22;54614;47.576;7.524;2023-08-20T06:18:41;26.70;82.90
67817;DHT22;54614;47.576;7.524;2023-08-20T06:21:07;26.60;80.80
67817;DHT22;54614;47.576;7.524;2023-08-20T06:23:33;26.60;80.80
67817;DHT22;54614;47.576;7.524;2023-08-20T06:25:58;26.60;81.20
67817;DHT22;54614;47.576;7.524;2023-08-20T06:28:24;26.60;82.10
67817;DHT22;54614;47.576;7.524;2023-08-20T06:30:50;26.70;82.30
67817;DHT22;54614;47.576;7.524;2023-08-20T06:33:15;26.70;82.30
67817;DHT22;54614;47.576;7.524;2023-08-20T06:35:41;26.60;82.70
67817;DHT22;54614;47.576;7.524;2023-08-20T06:38:07;26.40;84.10
67817;DHT22;54614;47.576;7.524;2023-08-20T06:40:33;26.40;84.40
67817;DHT22;54614;47.576;7.524;2023-08-20T06:42:59;26.50;84.30
67817;DHT22;54614;47.576;7.524;2023-08-20T06:45:25;26.40;84.40
67817;DHT22;54614;47.576;7.524;2023-08-20T06:47:51;26.20;85.10
67817;DHT22;54614;47.576;7.524;2023-08-20T06:50:17;26.10;85.50
67817;DHT22;54614;47.576;7.524;2023-08-20T06:52:42;26.10;85.70
67817;DHT22;54614;47.576;7.524;2023-08-20T06:55:08;26.20;85.40
67817;DHT22;54614;47.576;7.524;2023-08-20T06:57:34;26.30;85.50
67817;DHT22;54614;47.576;7.524;2023-08-20T07:00:00;26.40;85.30
67817;DHT22;54614;47.576;7.524;2023-08-20T07:02:26;26.40;85.20
67817;DHT22;54614;47.576;7.524;2023-08-20T07:04:52;26.40;85.40
67817;DHT22;54614;47.576;7.524;2023-08-20T07:07:17;26.40;85.10
67817;DHT22;54614;47.576;7.524;2023-08-20T07:09:43;26.40;85.30
67817;DHT22;54614;47.576;7.524;2023-08-20T07:12:09;26.50;85.40
67817;DHT22;54614;47.576;7.524;2023-08-20T07:14:35;26.30;85.70
67817;DHT22;54614;47.576;7.524;2023-08-20T07:17:00;26.30;86.00
67817;DHT22;54614;47.576;7.524;2023-08-20T07:19:28;26.30;86.10
67817;DHT22;54614;47.576;7.524;2023-08-20T07:21:54;26.50;85.80
67817;DHT22;54614;47.576;7.524;2023-08-20T07:24:20;26.60;85.60
67817;DHT22;54614;47.576;7.524;2023-08-20T07:26:54;26.50;85.70
67817;DHT22;54614;47.576;7.524;2023-08-20T07:29:25;26.50;86.30
67817;DHT22;54614;47.576;7.524;2023-08-20T07:31:51;26.60;87.10
67817;DHT22;54614;47.576;7.524;2023-08-20T07:34:17;26.60;87.00
67817;DHT22;54614;47.576;7.524;2023-08-20T07:36:42;26.70;87.20
67817;DHT22;54614;47.576;7.524;2023-08-20T07:39:08;26.70;86.90
67817;DHT22;54614;47.576;7.524;2023-08-20T07:41:34;26.80;87.40
67817;DHT22;54614;47.576;7.524;2023-08-20T07:44:00;26.80;87.80
67817;DHT22;54614;47.576;7.524;2023-08-20T07:46:26;26.90;88.30
67817;DHT22;54614;47.576;7.524;2023-08-20T07:48:51;27.00;88.50
67817;DHT22;54614;47.576;7.524;2023-08-20T07:51:17;27.10;88.30
67817;DHT22;54614;47.576;7.524;2023-08-20T07:53:43;27.20;88.60
67817;DHT22;54614;47.576;7.524;2023-08-20T07:56:09;27.40;89.40
67817;DHT22;54614;47.576;7.524;2023-08-20T07:58:35;27.40;90.00
67817;DHT22;54614;47.576;7.524;2023-08-20T08:01:00;27.40;90.00
67817;DHT22;54614;47.576;7.524;2023-08-20T08:03:26;27.50;90.40
67817;DHT22;54614;47.576;7.524;2023-08-20T08:05:52;27.60;91.40
67817;DHT22;54614;47.576;7.524;2023-08-20T08:08:20;27.60;92.00
67817;DHT22;54614;47.576;7.524;2023-08-20T10:17:32;28.20;93.10
67817;DHT22;54614;47.576;7.524;2023-08-20T10:19:59;28.30;92.40
67817;DHT22;54614;47.576;7.524;2023-08-20T10:22:37;28.30;91.70
67817;DHT22;54614;47.576;7.524;2023-08-20T10:25:08;28.30;91.30
67817;DHT22;54614;47.576;7.524;2023-08-20T10:28:10;28.30;91.30
67817;DHT22;54614;47.576;7.524;2023-08-20T10:38:14;28.10;91.70
67817;DHT22;54614;47.576;7.524;2023-08-20T10:43:28;28.20;93.00
67817;DHT22;54614;47.576;7.524;2023-08-20T10:56:47;28.20;91.20
67817;DHT22;54614;47.576;7.524;2023-08-20T10:59:22;28.20;91.10
67817;DHT22;54614;47.576;7.524;2023-08-20T11:06:52;28.10;92.10
67817;DHT22;54614;47.576;7.524;2023-08-20T11:09:21;28.20;90.50
67817;DHT22;54614;47.576;7.524;2023-08-20T11:11:48;28.20;90.60
67817;DHT22;54614;47.576;7.524;2023-08-20T11:14:15;28.20;90.70
67817;DHT22;54614;47.576;7.524;2023-08-20T11:16:44;28.20;90.70
67817;DHT22;54614;47.576;7.524;2023-08-20T11:19:12;28.20;90.70
67817;DHT22;54614;47.576;7.524;2023-08-20T11:21:43;28.20;90.90
67817;DHT22;54614;47.576;7.524;2023-08-20T11:24:10;28.20;90.90
67817;DHT22;54614;47.576;7.524;2023-08-20T11:26:39;28.20;90.90
67817;DHT22;54614;47.576;7.524;2023-08-20T11:29:07;28.20;90.90
67817;DHT22;54614;47.576;7.524;2023-08-20T11:31:42;28.20;91.00
67817;DHT22;54614;47.576;7.524;2023-08-20T11:36:35;27.90;92.80
67817;DHT22;54614;47.576;7.524;2023-08-20T11:39:01;28.20;90.60
67817;DHT22;54614;47.576;7.524;2023-08-20T11:41:27;28.20;90.50
67817;DHT22;54614;47.576;7.524;2023-08-20T11:43:53;28.20;90.50
67817;DHT22;54614;47.576;7.524;2023-08-20T11:46:21;28.20;90.40
67817;DHT22;54614;47.576;7.524;2023-08-20T11:49:08;28.20;90.30
67817;DHT22;54614;47.576;7.524;2023-08-20T11:51:36;28.20;90.20
67817;DHT22;54614;47.576;7.524;2023-08-20T11:54:11;28.20;90.30
67817;DHT22;54614;47.576;7.524;2023-08-20T11:56:51;28.30;90.30
67817;DHT22;54614;47.576;7.524;2023-08-20T11:59:19;28.30;90.30
67817;DHT22;54614;47.576;7.524;2023-08-20T12:01:57;28.30;90.40
67817;DHT22;54614;47.576;7.524;2023-08-20T12:04:26;28.20;90.40
67817;DHT22;54614;47.576;7.524;2023-08-20T12:09:33;28.30;90.60
67817;DHT22;54614;47.576;7.524;2023-08-20T12:12:00;28.30;90.70
67817;DHT22;54614;47.576;7.524;2023-08-20T12:14:27;28.30;93.90
